sensor_id;sensor_type;location;lat;lon;timestamp;temperature;humidity
9925;DHT22;5001;51.674;7.868;2023-05-10T00:00:40;17.20;99.90
9925;DHT22;5001;51.674;7.868;2023-05-10T00:03:07;17.20;99.90
9925;DHT22;5001;51.674;7.868;2023-05-10T00:05:34;17.10;99.90
9925;DHT22;5001;51.674;7.868;2023-05-10T00:08:01;17.10;99.90
9925;DHT22;5001;51.674;7.868;2023-05-10T00:10:28;16.90;99.90
9925;DHT22;5001;51.674;7.868;2023-05-10T00:12:55;17.10;99.90
9925;DHT22;5001;51.674;7.868;2023-05-10T00:15:22;16.90;99.90
9925;DHT22;5001;51.674;7.868;2023-05-10T00:17:49;16.80;99.90
9925;DHT22;5001;51.674;7.868;2023-05-10T00:20:16;16.70;99.90
9925;DHT22;5001;51.674;7.868;2023-05-10T00:22:44;16.60;99.90
9925;DHT22;5001;51.674;7.868;2023-05-10T00:25:11;16.70;99.90
9925;DHT22;5001;51.674;7.868;2023-05-10T00:27:38;16.80;99.90
9925;DHT22;5001;51.674;7.868;2023-05-10T00:30:05;16.60;99.90
9925;DHT22;5001;51.674;7.868;2023-05-10T00:32:34;16.60;99.90
9925;DHT22;5001;51.674;7.868;2023-05-10T00:35:01;16.60;99.90
9925;DHT22;5001;51.674;7.868;2023-05-10T00:37:28;16.60;99.90
9925;DHT22;5001;51.674;7.868;2023-05-10T00:39:55;16.70;99.90
9925;DHT22;5001;51.674;7.868;2023-05-10T00:42:22;16.50;99.90
9925;DHT22;5001;51.674;7.868;2023-05-10T00:44:52;16.40;99.90
9925;DHT22;5001;51.674;7.868;2023-05-10T00:47:19;16.30;99.90
9925;DHT22;5001;51.674;7.868;2023-05-10T00:49:46;16.50;99.90
9925;DHT22;5001;51.674;7.868;2023-05-10T00:52:13;16.40;99.90
9925;DHT22;5001;51.674;7.868;2023-05-10T00:54:40;16.50;99.90
9925;DHT22;5001;51.674;7.868;2023-05-10T00:57:07;16.50;99.90
9925;DHT22;5001;51.674;7.868;2023-05-10T00:59:35;16.50;99.90
9925;DHT22;5001;51.674;7.868;2023-05-10T01:02:02;16.30;99.90
9925;DHT22;5001;51.674;7.868;2023-05-10T01:04:30;16.30;99.90
9925;DHT22;5001;51.674;7.868;2023-05-10T01:06:57;16.30;99.90
9925;DHT22;5001;51.674;7.868;2023-05-10T01:09:24;16.20;99.90
9925;DHT22;5001;51.674;7.868;2023-05-10T01:11:55;16.20;99.90
9925;DHT22;5001;51.674;7.868;2023-05-10T01:14:23;16.10;99.90
9925;DHT22;5001;51.674;7.868;2023-05-10T01:16:52;16.20;99.90
9925;DHT22;5001;51.674;7.868;2023-05-10T01:19:23;16.10;99.90
9925;DHT22;5001;51.674;7.868;2023-05-10T01:22:09;16.10;99.90
9925;DHT22;5001;51.674;7.868;2023-05-10T01:24:57;16.10;99.90
9925;DHT22;5001;51.674;7.868;2023-05-10T01:33:01;16.10;99.90
9925;DHT22;5001;51.674;7.868;2023-05-10T01:38:23;16.10;99.90
9925;DHT22;5001;51.674;7.868;2023-05-10T01:41:20;16.20;99.90
9925;DHT22;5001;51.674;7.868;2023-05-10T01:44:28;16.30;99.90
9925;DHT22;5001;51.674;7.868;2023-05-10T01:47:04;16.80;99.90
9925;DHT22;5001;51.674;7.868;2023-05-10T01:49:39;17.00;99.90
9925;DHT22;5001;51.674;7.868;2023-05-10T01:52:10;17.10;99.90
9925;DHT22;5001;51.674;7.868;2023-05-10T01:54:59;17.40;99.90
9925;DHT22;5001;51.674;7.868;2023-05-10T01:57:33;17.30;99.90
9925;DHT22;5001;51.674;7.868;2023-05-10T02:00:02;17.40;99.90
9925;DHT22;5001;51.674;7.868;2023-05-10T02:02:44;17.40;99.90
9925;DHT22;5001;51.674;7.868;2023-05-10T02:05:13;17.20;99.90
9925;DHT22;5001;51.674;7.868;2023-05-10T02:07:41;17.20;99.90
9925;DHT22;5001;51.674;7.868;2023-05-10T02:10:10;17.20;99.90
9925;DHT22;5001;51.674;7.868;2023-05-10T02:12:42;17.30;99.90
9925;DHT22;5001;51.674;7.868;2023-05-10T02:15:12;16.90;99.90
9925;DHT22;5001;51.674;7.868;2023-05-10T02:17:40;17.00;99.90
9925;DHT22;5001;51.674;7.868;2023-05-10T02:20:09;17.10;99.90
9925;DHT22;5001;51.674;7.868;2023-05-10T02:22:37;17.00;99.90
9925;DHT22;5001;51.674;7.868;2023-05-10T02:25:07;16.90;99.90
9925;DHT22;5001;51.674;7.868;2023-05-10T02:27:36;17.00;99.90
9925;DHT22;5001;51.674;7.868;2023-05-10T02:30:05;17.00;99.90
9925;DHT22;5001;51.674;7.868;2023-05-10T02:32:34;16.90;99.90
9925;DHT22;5001;51.674;7.868;2023-05-10T02:35:03;16.80;99.90
9925;DHT22;5001;51.674;7.868;2023-05-10T02:37:30;16.80;99.90
9925;DHT22;5001;51.674;7.868;2023-05-10T02:40:01;17.10;99.90
9925;DHT22;5001;51.674;7.868;2023-05-10T02:42:36;17.10;99.90
9925;DHT22;5001;51.674;7.868;2023-05-10T02:45:08;16.90;99.90
9925;DHT22;5001;51.674;7.868;2023-05-10T02:47:37;16.80;99.90
9925;DHT22;5001;51.674;7.868;2023-05-10T02:50:05;16.60;99.90
9925;DHT22;5001;51.674;7.868;2023-05-10T02:52:40;16.50;99.90
9925;DHT22;5001;51.674;7.868;2023-05-10T02:55:12;16.50;99.90
9925;DHT22;5001;51.674;7.868;2023-05-10T02:57:48;16.60;99.90
9925;DHT22;5001;51.674;7.868;2023-05-10T03:00:16;16.50;99.90
9925;DHT22;5001;51.674;7.868;2023-05-10T03:02:43;16.30;99.90
9925;DHT22;5001;51.674;7.868;2023-05-10T03:05:11;16.40;99.90
9925;DHT22;5001;51.674;7.868;2023-05-10T03:07:38;16.60;99.90
9925;DHT22;5001;51.674;7.868;2023-05-10T03:10:05;16.40;99.90
9925;DHT22;5001;51.674;7.868;2023-05-10T03:13:14;16.30;99.90
9925;DHT22;5001;51.674;7.868;2023-05-10T03:18:26;16.10;99.90
9925;DHT22;5001;51.674;7.868;2023-05-10T03:20:59;16.00;99.90
9925;DHT22;5001;51.674;7.868;2023-05-10T03:23:32;15.90;99.90
9925;DHT22;5001;51.674;7.868;2023-05-10T03:26:01;15.90;99.90
9925;DHT22;5001;51.674;7.868;2023-05-10T03:28:30;15.80;99.90
9925;DHT22;5001;51.674;7.868;2023-05-10T03:30:59;15.90;99.90
9925;DHT22;5001;51.674;7.868;2023-05-10T03:33:26;16.10;99.90
9925;DHT22;5001;51.674;7.868;2023-05-10T03:35:53;16.00;99.90
9925;DHT22;5001;51.674;7.868;2023-05-10T03:38:20;15.80;99.90
9925;DHT22;5001;51.674;7.868;2023-05-10T03:40:47;15.80;99.90
9925;DHT22;5001;51.674;7.868;2023-05-10T03:43:14;15.70;99.90
9925;DHT22;5001;51.674;7.868;2023-05-10T03:45:41;15.70;99.90
9925;DHT22;5001;51.674;7.868;2023-05-10T03:48:08;15.90;99.90
9925;DHT22;5001;51.674;7.868;2023-05-10T03:50:35;16.00;99.90
9925;DHT22;5001;51.674;7.868;2023-05-10T03:53:03;15.90;99.90
9925;DHT22;5001;51.674;7.868;2023-05-10T03:55:30;16.00;99.90
9925;DHT22;5001;51.674;7.868;2023-05-10T03:58:01;15.80;99.90
9925;DHT22;5001;51.674;7.868;2023-05-10T04:00:28;15.70;99.90
9925;DHT22;5001;51.674;7.868;2023-05-10T04:02:55;15.60;99.90
9925;DHT22;5001;51.674;7.868;2023-05-10T04:05:22;15.60;99.90
9925;DHT22;5001;51.674;7.868;2023-05-10T04:07:51;15.70;99.90
9925;DHT22;5001;51.674;7.868;2023-05-10T04:10:19;15.70;99.90
9925;DHT22;5001;51.674;7.868;2023-05-10T04:12:46;16.10;99.90
9925;DHT22;5001;51.674;7.868;2023-05-10T04:15:13;16.10;99.90
9925;DHT22;5001;51.674;7.868;2023-05-10T04:17:40;15.90;99.90
9925;DHT22;5001;51.674;7.868;2023-05-10T04:20:07;15.60;99.90
9925;DHT22;5001;51.674;7.868;2023-05-10T04:22:35;15.60;99.90
9925;DHT22;5001;51.674;7.868;2023-05-10T04:25:02;15.40;99.90
9925;DHT22;5001;51.674;7.868;2023-05-10T04:27:29;15.40;99.90
9925;DHT22;5001;51.674;7.868;2023-05-10T04:29:56;15.60;99.90
9925;DHT22;5001;51.674;7.868;2023-05-10T04:32:23;15.50;99.90
9925;DHT22;5001;51.674;7.868;2023-05-10T04:34:50;15.40;99.90
9925;DHT22;5001;51.674;7.868;2023-05-10T04:37:20;15.50;99.90
9925;DHT22;5001;51.674;7.868;2023-05-10T04:39:48;15.40;99.90
9925;DHT22;5001;51.674;7.868;2023-05-10T04:42:15;15.40;99.90
9925;DHT22;5001;51.674;7.868;2023-05-10T04:44:42;15.60;99.90
9925;DHT22;5001;51.674;7.868;2023-05-10T04:47:09;15.70;99.90
9925;DHT22;5001;51.674;7.868;2023-05-10T04:49:38;16.00;99.90
9925;DHT22;5001;51.674;7.868;2023-05-10T04:52:05;16.00;99.90
9925;DHT22;5001;51.674;7.868;2023-05-10T04:54:32;15.50;99.90
9925;DHT22;5001;51.674;7.868;2023-05-10T04:56:59;15.80;99.90
9925;DHT22;5001;51.674;7.868;2023-05-10T04:59:26;15.80;99.90
9925;DHT22;5001;51.674;7.868;2023-05-10T05:01:53;16.00;99.90
9925;DHT22;5001;51.674;7.868;2023-05-10T05:04:20;16.10;99.90
9925;DHT22;5001;51.674;7.868;2023-05-10T05:06:47;15.90;99.90
9925;DHT22;5001;51.674;7.868;2023-05-10T05:09:14;15.90;99.90
9925;DHT22;5001;51.674;7.868;2023-05-10T05:11:41;16.20;99.90
9925;DHT22;5001;51.674;7.868;2023-05-10T05:14:08;16.10;99.90
9925;DHT22;5001;51.674;7.868;2023-05-10T05:16:35;16.00;99.90
9925;DHT22;5001;51.674;7.868;2023-05-10T05:19:02;15.90;99.90
9925;DHT22;5001;51.674;7.868;2023-05-10T05:21:29;15.70;99.90
9925;DHT22;5001;51.674;7.868;2023-05-10T05:23:56;15.90;99.90
9925;DHT22;5001;51.674;7.868;2023-05-10T05:26:23;16.10;99.90
9925;DHT22;5001;51.674;7.868;2023-05-10T05:28:50;16.00;99.90
9925;DHT22;5001;51.674;7.868;2023-05-10T05:31:20;15.90;99.90
9925;DHT22;5001;51.674;7.868;2023-05-10T05:33:47;15.70;99.90
9925;DHT22;5001;51.674;7.868;2023-05-10T05:36:14;16.00;99.90
9925;DHT22;5001;51.674;7.868;2023-05-10T05:38:41;16.10;99.90
9925;DHT22;5001;51.674;7.868;2023-05-10T05:41:09;16.00;99.90
9925;DHT22;5001;51.674;7.868;2023-05-10T05:43:36;16.00;99.90
9925;DHT22;5001;51.674;7.868;2023-05-10T05:46:04;16.40;99.90
9925;DHT22;5001;51.674;7.868;2023-05-10T05:48:31;16.60;99.90
9925;DHT22;5001;51.674;7.868;2023-05-10T05:50:58;15.80;99.90
9925;DHT22;5001;51.674;7.868;2023-05-10T05:53:25;15.90;99.90
9925;DHT22;5001;51.674;7.868;2023-05-10T05:55:56;15.90;99.90
9925;DHT22;5001;51.674;7.868;2023-05-10T05:58:25;15.80;99.90
9925;DHT22;5001;51.674;7.868;2023-05-10T06:00:52;15.40;99.90
9925;DHT22;5001;51.674;7.868;2023-05-10T06:03:19;15.70;99.90
9925;DHT22;5001;51.674;7.868;2023-05-10T06:05:47;15.70;99.90
9925;DHT22;5001;51.674;7.868;2023-05-10T06:08:15;15.70;99.90
9925;DHT22;5001;51.674;7.868;2023-05-10T06:10:42;15.80;99.90
9925;DHT22;5001;51.674;7.868;2023-05-10T06:13:09;15.70;99.90
9925;DHT22;5001;51.674;7.868;2023-05-10T06:15:36;15.80;99.90
9925;DHT22;5001;51.674;7.868;2023-05-10T06:18:04;15.90;99.90
9925;DHT22;5001;51.674;7.868;2023-05-10T06:20:31;15.90;99.90
9925;DHT22;5001;51.674;7.868;2023-05-10T06:22:58;15.80;99.90
9925;DHT22;5001;51.674;7.868;2023-05-10T06:25:25;15.90;99.90
9925;DHT22;5001;51.674;7.868;2023-05-10T06:27:52;15.80;99.90
9925;DHT22;5001;51.674;7.868;2023-05-10T06:30:24;15.70;99.90
9925;DHT22;5001;51.674;7.868;2023-05-10T06:32:54;15.60;99.90
9925;DHT22;5001;51.674;7.868;2023-05-10T06:35:22;15.40;99.90
9925;DHT22;5001;51.674;7.868;2023-05-10T06:37:50;15.30;99.90
9925;DHT22;5001;51.674;7.868;2023-05-10T06:40:18;15.40;99.90
9925;DHT22;5001;51.674;7.868;2023-05-10T06:42:46;15.30;99.90
9925;DHT22;5001;51.674;7.868;2023-05-10T06:45:14;15.30;99.90
9925;DHT22;5001;51.674;7.868;2023-05-10T06:47:42;15.60;99.90
9925;DHT22;5001;51.674;7.868;2023-05-10T06:50:10;15.50;99.90
9925;DHT22;5001;51.674;7.868;2023-05-10T06:52:38;15.70;99.90
9925;DHT22;5001;51.674;7.868;2023-05-10T06:55:06;15.60;99.90
9925;DHT22;5001;51.674;7.868;2023-05-10T06:57:33;15.90;99.90
9925;DHT22;5001;51.674;7.868;2023-05-10T07:00:00;15.40;99.90
9925;DHT22;5001;51.674;7.868;2023-05-10T07:02:27;15.50;99.90
9925;DHT22;5001;51.674;7.868;2023-05-10T07:04:55;15.80;99.90
9925;DHT22;5001;51.674;7.868;2023-05-10T07:07:22;15.90;99.90
9925;DHT22;5001;51.674;7.868;2023-05-10T07:09:49;15.80;99.90
9925;DHT22;5001;51.674;7.868;2023-05-10T07:12:17;15.50;99.90
9925;DHT22;5001;51.674;7.868;2023-05-10T07:14:44;15.30;99.90
9925;DHT22;5001;51.674;7.868;2023-05-10T07:17:11;15.80;99.90
9925;DHT22;5001;51.674;7.868;2023-05-10T07:19:38;15.80;99.90
9925;DHT22;5001;51.674;7.868;2023-05-10T07:22:05;16.00;99.90
9925;DHT22;5001;51.674;7.868;2023-05-10T07:24:33;16.30;99.90
9925;DHT22;5001;51.674;7.868;2023-05-10T07:27:00;15.90;99.90
9925;DHT22;5001;51.674;7.868;2023-05-10T07:29:27;15.90;99.90
9925;DHT22;5001;51.674;7.868;2023-05-10T07:31:54;15.90;99.90
9925;DHT22;5001;51.674;7.868;2023-05-10T07:34:24;16.20;99.90
9925;DHT22;5001;51.674;7.868;2023-05-10T07:36:52;16.30;99.90
9925;DHT22;5001;51.674;7.868;2023-05-10T07:39:19;16.10;99.90
9925;DHT22;5001;51.674;7.868;2023-05-10T07:41:54;16.30;99.90
9925;DHT22;5001;51.674;7.868;2023-05-10T07:44:22;16.50;99.90
9925;DHT22;5001;51.674;7.868;2023-05-10T07:46:49;17.20;99.90
9925;DHT22;5001;51.674;7.868;2023-05-10T07:49:16;17.70;99.90
9925;DHT22;5001;51.674;7.868;2023-05-10T07:51:43;18.90;99.90
9925;DHT22;5001;51.674;7.868;2023-05-10T07:54:10;20.30;99.90
9925;DHT22;5001;51.674;7.868;2023-05-10T07:56:37;20.40;99.90
9925;DHT22;5001;51.674;7.868;2023-05-10T07:59:05;21.50;1.00
9925;DHT22;5001;51.674;7.868;2023-05-10T08:01:34;22.30;1.00
9925;DHT22;5001;51.674;7.868;2023-05-10T08:04:02;25.20;99.90
9925;DHT22;5001;51.674;7.868;2023-05-10T08:06:29;26.90;1.00
9925;DHT22;5001;51.674;7.868;2023-05-10T08:08:57;25.60;1.00
9925;DHT22;5001;51.674;7.868;2023-05-10T08:11:24;25.40;1.00
9925;DHT22;5001;51.674;7.868;2023-05-10T08:13:52;25.80;1.00
9925;DHT22;5001;51.674;7.868;2023-05-10T08:16:22;25.40;1.00
9925;DHT22;5001;51.674;7.868;2023-05-10T08:18:50;24.70;1.00
9925;DHT22;5001;51.674;7.868;2023-05-10T08:21:17;24.60;99.90
9925;DHT22;5001;51.674;7.868;2023-05-10T08:23:45;26.30;99.90
9925;DHT22;5001;51.674;7.868;2023-05-10T08:26:12;27.50;99.90
9925;DHT22;5001;51.674;7.868;2023-05-10T08:28:39;25.80;99.90
9925;DHT22;5001;51.674;7.868;2023-05-10T08:31:06;24.60;99.90
9925;DHT22;5001;51.674;7.868;2023-05-10T08:33:33;23.20;99.90
9925;DHT22;5001;51.674;7.868;2023-05-10T08:36:00;22.60;99.90
9925;DHT22;5001;51.674;7.868;2023-05-10T08:38:27;26.90;99.90
9925;DHT22;5001;51.674;7.868;2023-05-10T08:40:55;29.40;99.90
9925;DHT22;5001;51.674;7.868;2023-05-10T08:43:27;27.60;99.90
9925;DHT22;5001;51.674;7.868;2023-05-10T08:45:56;26.00;99.90
9925;DHT22;5001;51.674;7.868;2023-05-10T08:48:24;25.80;99.90
9925;DHT22;5001;51.674;7.868;2023-05-10T08:50:53;27.00;99.90
9925;DHT22;5001;51.674;7.868;2023-05-10T08:53:24;25.70;99.90
9925;DHT22;5001;51.674;7.868;2023-05-10T08:55:54;26.40;99.90
9925;DHT22;5001;51.674;7.868;2023-05-10T08:58:22;26.20;99.90
9925;DHT22;5001;51.674;7.868;2023-05-10T09:00:49;27.10;99.90
9925;DHT22;5001;51.674;7.868;2023-05-10T09:03:18;24.30;99.90
9925;DHT22;5001;51.674;7.868;2023-05-10T09:05:45;24.20;99.90
9925;DHT22;5001;51.674;7.868;2023-05-10T09:08:13;24.30;99.90
9925;DHT22;5001;51.674;7.868;2023-05-10T09:10:46;23.30;99.90
9925;DHT22;5001;51.674;7.868;2023-05-10T09:13:15;20.90;99.90
9925;DHT22;5001;51.674;7.868;2023-05-10T09:15:44;20.00;99.90
9925;DHT22;5001;51.674;7.868;2023-05-10T09:18:12;19.70;99.90
9925;DHT22;5001;51.674;7.868;2023-05-10T09:20:40;19.70;99.90
9925;DHT22;5001;51.674;7.868;2023-05-10T09:23:07;19.20;99.90
9925;DHT22;5001;51.674;7.868;2023-05-10T09:25:34;19.00;99.90
9925;DHT22;5001;51.674;7.868;2023-05-10T09:28:02;21.60;99.90
9925;DHT22;5001;51.674;7.868;2023-05-10T09:30:30;26.10;99.90
9925;DHT22;5001;51.674;7.868;2023-05-10T09:32:58;29.10;99.90
9925;DHT22;5001;51.674;7.868;2023-05-10T09:35:28;31.40;99.90
9925;DHT22;5001;51.674;7.868;2023-05-10T09:37:59;29.80;99.90
9925;DHT22;5001;51.674;7.868;2023-05-10T09:40:28;27.40;99.90
9925;DHT22;5001;51.674;7.868;2023-05-10T09:45:30;24.20;99.90
9925;DHT22;5001;51.674;7.868;2023-05-10T09:47:58;26.20;99.90
9925;DHT22;5001;51.674;7.868;2023-05-10T09:50:26;27.80;99.90
9925;DHT22;5001;51.674;7.868;2023-05-10T09:52:58;28.60;99.90
9925;DHT22;5001;51.674;7.868;2023-05-10T09:55:26;28.70;99.90
9925;DHT22;5001;51.674;7.868;2023-05-10T09:58:04;28.80;99.90
9925;DHT22;5001;51.674;7.868;2023-05-10T10:00:37;27.60;99.90
9925;DHT22;5001;51.674;7.868;2023-05-10T10:03:04;27.60;99.90
9925;DHT22;5001;51.674;7.868;2023-05-10T10:05:35;25.20;99.90
9925;DHT22;5001;51.674;7.868;2023-05-10T10:08:04;23.50;99.90
9925;DHT22;5001;51.674;7.868;2023-05-10T10:10:32;21.50;99.90
9925;DHT22;5001;51.674;7.868;2023-05-10T10:13:00;20.20;99.90
9925;DHT22;5001;51.674;7.868;2023-05-10T10:15:27;20.30;99.90
9925;DHT22;5001;51.674;7.868;2023-05-10T10:17:54;20.90;99.90
9925;DHT22;5001;51.674;7.868;2023-05-10T10:20:22;23.00;99.90
9925;DHT22;5001;51.674;7.868;2023-05-10T10:22:49;25.50;99.90
9925;DHT22;5001;51.674;7.868;2023-05-10T10:25:17;26.90;99.90
9925;DHT22;5001;51.674;7.868;2023-05-10T10:30:41;23.10;99.90
9925;DHT22;5001;51.674;7.868;2023-05-10T10:33:33;21.40;99.90
9925;DHT22;5001;51.674;7.868;2023-05-10T10:36:03;21.10;99.90
9925;DHT22;5001;51.674;7.868;2023-05-10T10:38:57;21.30;99.90
9925;DHT22;5001;51.674;7.868;2023-05-10T10:41:38;21.60;99.90
9925;DHT22;5001;51.674;7.868;2023-05-10T10:57:43;26.10;99.90
9925;DHT22;5001;51.674;7.868;2023-05-10T11:02:46;25.80;99.90
9925;DHT22;5001;51.674;7.868;2023-05-10T11:10:51;23.30;99.90
9925;DHT22;5001;51.674;7.868;2023-05-10T11:13:31;24.90;99.90
9925;DHT22;5001;51.674;7.868;2023-05-10T11:16:09;25.90;99.90
9925;DHT22;5001;51.674;7.868;2023-05-10T11:18:37;26.60;99.90
9925;DHT22;5001;51.674;7.868;2023-05-10T11:21:04;25.00;99.90
9925;DHT22;5001;51.674;7.868;2023-05-10T11:26:11;25.80;99.90
9925;DHT22;5001;51.674;7.868;2023-05-10T11:28:48;25.80;99.90
9925;DHT22;5001;51.674;7.868;2023-05-10T11:31:17;26.20;99.90
9925;DHT22;5001;51.674;7.868;2023-05-10T11:33:45;27.00;99.90
9925;DHT22;5001;51.674;7.868;2023-05-10T11:36:15;26.00;99.90
9925;DHT22;5001;51.674;7.868;2023-05-10T11:38:42;27.00;99.90
9925;DHT22;5001;51.674;7.868;2023-05-10T11:41:10;26.30;99.90
9925;DHT22;5001;51.674;7.868;2023-05-10T11:43:41;26.80;99.90
9925;DHT22;5001;51.674;7.868;2023-05-10T11:46:13;26.00;99.90
9925;DHT22;5001;51.674;7.868;2023-05-10T11:48:41;25.40;99.90
9925;DHT22;5001;51.674;7.868;2023-05-10T11:51:09;24.50;99.90
9925;DHT22;5001;51.674;7.868;2023-05-10T11:53:37;24.90;99.90
9925;DHT22;5001;51.674;7.868;2023-05-10T11:56:11;25.40;99.90
9925;DHT22;5001;51.674;7.868;2023-05-10T11:58:39;24.40;99.90
9925;DHT22;5001;51.674;7.868;2023-05-10T12:01:07;23.70;99.90
9925;DHT22;5001;51.674;7.868;2023-05-10T12:03:36;22.50;99.90
9925;DHT22;5001;51.674;7.868;2023-05-10T12:06:03;22.30;99.90
9925;DHT22;5001;51.674;7.868;2023-05-10T12:08:30;22.30;99.90
9925;DHT22;5001;51.674;7.868;2023-05-10T12:11:06;22.40;99.90
9925;DHT22;5001;51.674;7.868;2023-05-10T12:13:38;22.60;99.90
9925;DHT22;5001;51.674;7.868;2023-05-10T12:16:18;22.60;99.90
9925;DHT22;5001;51.674;7.868;2023-05-10T12:18:55;22.60;99.90
9925;DHT22;5001;51.674;7.868;2023-05-10T12:21:22;22.70;99.90
9925;DHT22;5001;51.674;7.868;2023-05-10T12:23:54;23.00;99.90
9925;DHT22;5001;51.674;7.868;2023-05-10T12:26:23;23.80;99.90
9925;DHT22;5001;51.674;7.868;2023-05-10T12:28:51;24.40;99.90
9925;DHT22;5001;51.674;7.868;2023-05-10T12:31:18;24.40;99.90
9925;DHT22;5001;51.674;7.868;2023-05-10T12:33:46;23.50;99.90
9925;DHT22;5001;51.674;7.868;2023-05-10T12:36:15;23.40;99.90
9925;DHT22;5001;51.674;7.868;2023-05-10T12:38:44;22.60;99.90
9925;DHT22;5001;51.674;7.868;2023-05-10T12:41:12;22.70;99.90
9925;DHT22;5001;51.674;7.868;2023-05-10T12:43:40;23.00;99.90
9925;DHT22;5001;51.674;7.868;2023-05-10T12:46:12;23.40;99.90
9925;DHT22;5001;51.674;7.868;2023-05-10T12:48:40;23.30;99.90
9925;DHT22;5001;51.674;7.868;2023-05-10T12:51:08;23.20;99.90
9925;DHT22;5001;51.674;7.868;2023-05-10T12:53:36;23.00;99.90
9925;DHT22;5001;51.674;7.868;2023-05-10T12:56:03;23.40;99.90
9925;DHT22;5001;51.674;7.868;2023-05-10T12:58:31;23.40;99.90
9925;DHT22;5001;51.674;7.868;2023-05-10T13:01:02;22.40;99.90
9925;DHT22;5001;51.674;7.868;2023-05-10T13:03:32;21.60;99.90
9925;DHT22;5001;51.674;7.868;2023-05-10T13:06:00;21.70;99.90
9925;DHT22;5001;51.674;7.868;2023-05-10T13:08:27;22.30;99.90
9925;DHT22;5001;51.674;7.868;2023-05-10T13:10:56;22.50;99.90
9925;DHT22;5001;51.674;7.868;2023-05-10T13:13:23;22.50;99.90
9925;DHT22;5001;51.674;7.868;2023-05-10T13:15:50;22.80;99.90
9925;DHT22;5001;51.674;7.868;2023-05-10T13:18:17;22.80;99.90
9925;DHT22;5001;51.674;7.868;2023-05-10T13:20:44;22.50;99.90
9925;DHT22;5001;51.674;7.868;2023-05-10T13:23:12;22.50;99.90
9925;DHT22;5001;51.674;7.868;2023-05-10T13:25:38;22.80;99.90
9925;DHT22;5001;51.674;7.868;2023-05-10T13:28:06;22.40;99.90
9925;DHT22;5001;51.674;7.868;2023-05-10T13:30:32;22.20;99.90
9925;DHT22;5001;51.674;7.868;2023-05-10T13:32:59;22.00;99.90
9925;DHT22;5001;51.674;7.868;2023-05-10T13:35:26;22.00;99.90
9925;DHT22;5001;51.674;7.868;2023-05-10T13:37:53;21.80;99.90
9925;DHT22;5001;51.674;7.868;2023-05-10T13:40:23;21.90;99.90
9925;DHT22;5001;51.674;7.868;2023-05-10T13:42:50;21.80;99.90
9925;DHT22;5001;51.674;7.868;2023-05-10T13:45:17;21.80;99.90
9925;DHT22;5001;51.674;7.868;2023-05-10T13:47:45;21.60;99.90
9925;DHT22;5001;51.674;7.868;2023-05-10T13:50:12;21.60;99.90
9925;DHT22;5001;51.674;7.868;2023-05-10T13:52:39;21.70;99.90
9925;DHT22;5001;51.674;7.868;2023-05-10T13:55:06;21.40;99.90
9925;DHT22;5001;51.674;7.868;2023-05-10T13:57:33;21.50;99.90
9925;DHT22;5001;51.674;7.868;2023-05-10T14:00:02;21.50;99.90
9925;DHT22;5001;51.674;7.868;2023-05-10T14:02:33;21.60;99.90
9925;DHT22;5001;51.674;7.868;2023-05-10T14:05:01;21.80;99.90
9925;DHT22;5001;51.674;7.868;2023-05-10T14:07:29;21.20;99.90
9925;DHT22;5001;51.674;7.868;2023-05-10T14:09:56;20.80;99.90
9925;DHT22;5001;51.674;7.868;2023-05-10T14:12:23;21.10;99.90
9925;DHT22;5001;51.674;7.868;2023-05-10T14:14:50;21.30;99.90
9925;DHT22;5001;51.674;7.868;2023-05-10T14:17:17;20.60;99.90
9925;DHT22;5001;51.674;7.868;2023-05-10T14:19:44;20.80;99.90
9925;DHT22;5001;51.674;7.868;2023-05-10T14:22:11;21.10;99.90
9925;DHT22;5001;51.674;7.868;2023-05-10T14:24:38;21.10;99.90
9925;DHT22;5001;51.674;7.868;2023-05-10T14:27:05;20.50;99.90
9925;DHT22;5001;51.674;7.868;2023-05-10T14:29:32;20.70;99.90
9925;DHT22;5001;51.674;7.868;2023-05-10T14:31:59;20.90;99.90
9925;DHT22;5001;51.674;7.868;2023-05-10T14:34:26;21.10;99.90
9925;DHT22;5001;51.674;7.868;2023-05-10T14:36:53;21.00;99.90
9925;DHT22;5001;51.674;7.868;2023-05-10T14:39:20;21.00;99.90
9925;DHT22;5001;51.674;7.868;2023-05-10T14:41:48;21.00;99.90
9925;DHT22;5001;51.674;7.868;2023-05-10T14:44:15;21.40;99.90
9925;DHT22;5001;51.674;7.868;2023-05-10T14:46:42;21.00;99.90
9925;DHT22;5001;51.674;7.868;2023-05-10T14:49:09;20.80;99.90
9925;DHT22;5001;51.674;7.868;2023-05-10T14:51:36;20.80;99.90
9925;DHT22;5001;51.674;7.868;2023-05-10T14:54:03;21.00;99.90
9925;DHT22;5001;51.674;7.868;2023-05-10T14:56:31;21.20;99.90
9925;DHT22;5001;51.674;7.868;2023-05-10T14:58:58;21.00;99.90
9925;DHT22;5001;51.674;7.868;2023-05-10T15:01:26;20.90;99.90
9925;DHT22;5001;51.674;7.868;2023-05-10T15:03:53;20.80;99.90
9925;DHT22;5001;51.674;7.868;2023-05-10T15:06:30;21.00;99.90
9925;DHT22;5001;51.674;7.868;2023-05-10T15:08:58;20.90;99.90
9925;DHT22;5001;51.674;7.868;2023-05-10T15:11:25;20.80;99.90
9925;DHT22;5001;51.674;7.868;2023-05-10T15:13:53;20.80;99.90
9925;DHT22;5001;51.674;7.868;2023-05-10T15:16:20;20.80;99.90
9925;DHT22;5001;51.674;7.868;2023-05-10T15:18:47;20.70;99.90
9925;DHT22;5001;51.674;7.868;2023-05-10T15:21:15;20.60;99.90
9925;DHT22;5001;51.674;7.868;2023-05-10T15:23:42;20.70;99.90
9925;DHT22;5001;51.674;7.868;2023-05-10T15:26:09;20.70;99.90
9925;DHT22;5001;51.674;7.868;2023-05-10T15:28:36;20.90;99.90
9925;DHT22;5001;51.674;7.868;2023-05-10T15:31:03;20.80;99.90
9925;DHT22;5001;51.674;7.868;2023-05-10T15:33:30;21.00;99.90
9925;DHT22;5001;51.674;7.868;2023-05-10T15:35:57;21.20;99.90
9925;DHT22;5001;51.674;7.868;2023-05-10T15:38:24;21.00;99.90
9925;DHT22;5001;51.674;7.868;2023-05-10T15:40:51;21.20;99.90
9925;DHT22;5001;51.674;7.868;2023-05-10T15:43:21;20.80;99.90
9925;DHT22;5001;51.674;7.868;2023-05-10T15:45:48;20.90;99.90
9925;DHT22;5001;51.674;7.868;2023-05-10T15:48:16;20.90;99.90
9925;DHT22;5001;51.674;7.868;2023-05-10T15:50:43;20.80;99.90
9925;DHT22;5001;51.674;7.868;2023-05-10T15:53:10;20.80;99.90
9925;DHT22;5001;51.674;7.868;2023-05-10T15:55:37;20.80;99.90
9925;DHT22;5001;51.674;7.868;2023-05-10T15:58:04;20.90;99.90
9925;DHT22;5001;51.674;7.868;2023-05-10T16:00:31;20.80;99.90
9925;DHT22;5001;51.674;7.868;2023-05-10T16:02:58;20.90;99.90
9925;DHT22;5001;51.674;7.868;2023-05-10T16:05:25;20.80;99.90
9925;DHT22;5001;51.674;7.868;2023-05-10T16:07:55;21.20;99.90
9925;DHT22;5001;51.674;7.868;2023-05-10T16:10:23;21.30;99.90
9925;DHT22;5001;51.674;7.868;2023-05-10T16:12:50;21.50;99.90
9925;DHT22;5001;51.674;7.868;2023-05-10T16:15:18;21.80;99.90
9925;DHT22;5001;51.674;7.868;2023-05-10T16:17:47;21.70;99.90
9925;DHT22;5001;51.674;7.868;2023-05-10T16:20:14;21.70;99.90
9925;DHT22;5001;51.674;7.868;2023-05-10T16:22:41;21.70;99.90
9925;DHT22;5001;51.674;7.868;2023-05-10T16:25:10;21.80;99.90
9925;DHT22;5001;51.674;7.868;2023-05-10T16:27:39;21.80;99.90
9925;DHT22;5001;51.674;7.868;2023-05-10T16:30:07;21.70;99.90
9925;DHT22;5001;51.674;7.868;2023-05-10T16:32:34;21.50;99.90
9925;DHT22;5001;51.674;7.868;2023-05-10T16:35:01;21.30;99.90
9925;DHT22;5001;51.674;7.868;2023-05-10T16:37:28;20.90;99.90
9925;DHT22;5001;51.674;7.868;2023-05-10T16:39:55;20.80;99.90
9925;DHT22;5001;51.674;7.868;2023-05-10T16:42:28;20.60;99.90
9925;DHT22;5001;51.674;7.868;2023-05-10T16:44:56;20.40;99.90
9925;DHT22;5001;51.674;7.868;2023-05-10T16:47:23;20.40;99.90
9925;DHT22;5001;51.674;7.868;2023-05-10T16:49:52;20.30;99.90
9925;DHT22;5001;51.674;7.868;2023-05-10T16:52:19;20.30;99.90